createdAt,value
2023-05-20T00:00:49.003Z,11.94
2023-05-20T00:03:16.646Z,11.81
2023-05-20T00:05:43.581Z,11.88
2023-05-20T00:08:11.107Z,11.88
2023-05-20T00:10:38.059Z,11.81
2023-05-20T00:13:05.030Z,11.75
2023-05-20T00:15:32.726Z,11.75
2023-05-20T00:18:01.435Z,11.69
2023-05-20T00:20:28.496Z,11.75
2023-05-20T00:22:55.041Z,11.69
2023-05-20T00:25:22.003Z,11.63
2023-05-20T00:27:48.600Z,11.63
2023-05-20T00:30:15.195Z,11.56
2023-05-20T00:32:41.884Z,11.50
2023-05-20T00:35:09.272Z,11.56
2023-05-20T00:37:35.882Z,11.56
2023-05-20T00:40:02.870Z,11.56
2023-05-20T00:42:29.472Z,11.56
2023-05-20T00:44:56.361Z,11.50
2023-05-20T00:47:26.901Z,11.50
2023-05-20T00:49:53.657Z,11.50
2023-05-20T00:52:21.266Z,11.50
2023-05-20T00:54:47.850Z,11.50
2023-05-20T00:57:15.357Z,11.44
2023-05-20T00:59:44.090Z,11.50
2023-05-20T01:02:11.460Z,11.44
2023-05-20T01:04:38.391Z,11.50
2023-05-20T01:07:06.827Z,11.44
2023-05-20T01:09:34.033Z,11.38
2023-05-20T01:12:12.529Z,11.38
2023-05-20T01:14:51.211Z,11.38
2023-05-20T01:17:21.104Z,11.38
2023-05-20T01:19:49.064Z,11.38
2023-05-20T01:22:16.293Z,11.31
2023-05-20T01:24:45.170Z,11.25
2023-05-20T01:27:13.529Z,11.31
2023-05-20T01:29:44.173Z,11.31
2023-05-20T01:32:15.064Z,11.25
2023-05-20T01:34:43.823Z,11.25
2023-05-20T01:37:11.262Z,11.19
2023-05-20T01:39:41.602Z,11.19
2023-05-20T01:42:10.696Z,11.13
2023-05-20T01:44:38.199Z,11.06
2023-05-20T01:47:04.888Z,11.13
2023-05-20T01:49:31.580Z,10.94
2023-05-20T01:51:58.790Z,11.06
2023-05-20T01:54:25.611Z,11.06
2023-05-20T01:56:52.241Z,10.94
2023-05-20T01:59:18.886Z,10.94
2023-05-20T02:01:46.258Z,11.00
2023-05-20T02:04:13.006Z,11.06
2023-05-20T02:06:39.637Z,10.94
2023-05-20T02:09:06.425Z,10.81
2023-05-20T02:11:33.043Z,10.81
2023-05-20T02:13:59.606Z,10.88
2023-05-20T02:16:26.212Z,10.88
2023-05-20T02:18:53.134Z,10.88
2023-05-20T02:21:19.773Z,10.81
2023-05-20T02:23:46.618Z,10.81
2023-05-20T02:26:13.202Z,10.81
2023-05-20T02:28:43.490Z,10.81
2023-05-20T02:31:10.121Z,10.75
2023-05-20T02:33:36.772Z,10.81
2023-05-20T02:36:03.561Z,10.88
2023-05-20T02:38:31.747Z,10.56
2023-05-20T02:40:59.829Z,10.63
2023-05-20T02:43:26.410Z,10.63
2023-05-20T02:45:53.103Z,10.56
2023-05-20T02:48:19.847Z,10.50
2023-05-20T02:50:46.989Z,10.44
2023-05-20T02:53:13.676Z,10.44
2023-05-20T02:55:40.995Z,10.44
2023-05-20T02:58:07.592Z,10.50
2023-05-20T03:00:40.566Z,10.44
2023-05-20T03:03:08.207Z,10.44
2023-05-20T03:05:37.836Z,10.44
2023-05-20T03:08:10.846Z,10.38
2023-05-20T03:10:38.963Z,10.44
2023-05-20T03:13:11.457Z,10.50
2023-05-20T03:15:38.996Z,10.38
2023-05-20T03:18:07.121Z,10.44
2023-05-20T03:20:36.821Z,10.31
2023-05-20T03:23:03.647Z,10.25
2023-05-20T03:25:30.965Z,10.31
2023-05-20T03:28:01.029Z,10.31
2023-05-20T03:30:28.337Z,10.31
2023-05-20T03:32:57.724Z,10.19
2023-05-20T03:35:24.897Z,10.31
2023-05-20T03:37:53.189Z,10.31
2023-05-20T03:40:23.558Z,10.25
2023-05-20T03:42:52.013Z,10.13
2023-05-20T03:45:18.804Z,10.19
2023-05-20T03:47:45.517Z,10.13
2023-05-20T03:50:12.239Z,10.13
2023-05-20T03:52:40.848Z,10.19
2023-05-20T03:55:08.023Z,10.31
2023-05-20T03:57:36.496Z,10.25
2023-05-20T04:00:10.266Z,10.31
2023-05-20T04:02:37.168Z,10.38
2023-05-20T04:05:04.845Z,10.44
2023-05-20T04:07:31.423Z,10.38
2023-05-20T04:09:59.302Z,10.44
2023-05-20T04:12:30.438Z,10.44
2023-05-20T04:15:03.656Z,10.44
2023-05-20T04:17:31.404Z,10.31
2023-05-20T04:19:59.940Z,10.50
2023-05-20T04:22:26.964Z,10.56
2023-05-20T04:24:53.518Z,10.56
2023-05-20T04:27:21.455Z,10.63
2023-05-20T04:29:48.052Z,10.63
2023-05-20T04:32:17.407Z,10.75
2023-05-20T04:34:45.098Z,10.81
2023-05-20T04:37:12.312Z,10.75
2023-05-20T04:39:39.208Z,10.81
2023-05-20T04:42:06.477Z,10.75
2023-05-20T04:44:33.046Z,10.75
2023-05-20T04:46:59.627Z,10.88
2023-05-20T04:49:26.687Z,10.88
2023-05-20T04:51:55.400Z,10.88
2023-05-20T04:54:22.071Z,10.94
2023-05-20T04:56:48.757Z,11.00
2023-05-20T04:59:15.395Z,11.13
2023-05-20T05:01:41.995Z,11.25
2023-05-20T05:04:08.576Z,11.25
2023-05-20T05:06:36.214Z,11.38
2023-05-20T05:09:02.992Z,11.31
2023-05-20T05:11:29.580Z,11.38
2023-05-20T05:13:56.681Z,11.44
2023-05-20T05:16:23.396Z,11.56
2023-05-20T05:18:50.084Z,11.69
2023-05-20T05:21:16.736Z,11.63
2023-05-20T05:23:43.725Z,11.81
2023-05-20T05:26:10.504Z,11.81
2023-05-20T05:28:37.142Z,12.00
2023-05-20T05:31:03.887Z,12.00
2023-05-20T05:33:30.812Z,12.06
2023-05-20T05:35:59.075Z,12.13
2023-05-20T05:38:26.065Z,12.19
2023-05-20T05:40:53.212Z,12.25
2023-05-20T05:43:19.789Z,12.31
2023-05-20T05:45:46.336Z,12.44
2023-05-20T05:48:12.971Z,12.44
2023-05-20T05:50:39.668Z,12.63
2023-05-20T05:53:06.231Z,12.81
2023-05-20T05:55:33.405Z,12.94
2023-05-20T05:58:00.113Z,12.75
2023-05-20T06:00:26.679Z,13.06
2023-05-20T06:02:53.444Z,13.19
2023-05-20T06:05:20.145Z,13.19
2023-05-20T06:07:46.801Z,13.31
2023-05-20T06:10:13.509Z,13.38
2023-05-20T06:12:40.069Z,13.44
2023-05-20T06:15:07.668Z,13.69
2023-05-20T06:17:34.319Z,13.81
2023-05-20T06:20:01.000Z,14.00
2023-05-20T06:22:27.612Z,13.94
2023-05-20T06:24:56.674Z,14.13
2023-05-20T06:27:23.267Z,14.25
2023-05-20T06:29:49.890Z,14.25
2023-05-20T06:32:16.720Z,14.38
2023-05-20T06:34:43.557Z,14.50
2023-05-20T06:37:10.110Z,14.50
2023-05-20T06:39:36.890Z,14.50
2023-05-20T06:42:04.184Z,14.75
2023-05-20T06:44:31.410Z,14.81
2023-05-20T06:46:57.947Z,14.81
2023-05-20T06:49:24.843Z,14.88
2023-05-20T06:51:51.493Z,15.00
2023-05-20T06:54:18.129Z,15.06
2023-05-20T06:56:45.202Z,15.13
2023-05-20T06:59:11.759Z,15.25
2023-05-20T07:01:38.380Z,15.31
2023-05-20T07:04:05.132Z,15.31
2023-05-20T07:06:31.853Z,15.50
2023-05-20T07:08:58.449Z,15.75
2023-05-20T07:11:25.055Z,15.75
2023-05-20T07:13:51.617Z,15.88
2023-05-20T07:16:18.245Z,15.88
2023-05-20T07:18:44.937Z,16.00
2023-05-20T07:21:11.561Z,16.19
2023-05-20T07:23:38.163Z,16.25
2023-05-20T07:26:04.852Z,16.38
2023-05-20T07:28:31.416Z,16.44
2023-05-20T07:31:00.229Z,16.44
2023-05-20T07:33:26.854Z,16.69
2023-05-20T07:35:54.591Z,16.75
2023-05-20T07:38:21.431Z,16.56
2023-05-20T07:40:48.038Z,16.63
2023-05-20T07:43:14.644Z,16.94
2023-05-20T07:45:41.337Z,16.88
2023-05-20T07:48:08.873Z,16.88
2023-05-20T07:50:36.193Z,17.00
2023-05-20T07:53:02.832Z,17.13
2023-05-20T07:55:29.530Z,17.19
2023-05-20T07:57:56.157Z,17.19
2023-05-20T08:00:23.086Z,17.19
2023-05-20T08:02:49.911Z,17.19
2023-05-20T08:05:16.702Z,17.38
2023-05-20T08:07:43.301Z,17.44
2023-05-20T08:10:10.180Z,17.50
2023-05-20T08:12:36.764Z,17.63
2023-05-20T08:15:04.277Z,17.63
2023-05-20T08:17:31.023Z,17.56
2023-05-20T08:19:57.660Z,17.81
2023-05-20T08:22:24.299Z,18.00
2023-05-20T08:24:51.108Z,18.13
2023-05-20T08:27:17.715Z,18.06
2023-05-20T08:29:47.362Z,18.06
2023-05-20T08:32:14.043Z,18.00
2023-05-20T08:34:40.679Z,17.94
2023-05-20T08:37:07.404Z,18.25
2023-05-20T08:39:34.077Z,18.44
2023-05-20T08:42:01.133Z,18.69
2023-05-20T08:44:28.145Z,18.88
2023-05-20T08:46:56.907Z,18.94
2023-05-20T08:49:23.567Z,18.69
2023-05-20T08:51:50.117Z,18.69
2023-05-20T08:54:18.042Z,18.75
2023-05-20T08:56:45.112Z,18.63
2023-05-20T08:59:12.059Z,18.75
2023-05-20T09:01:45.444Z,18.81
2023-05-20T09:04:12.586Z,18.56
2023-05-20T09:06:46.876Z,18.75
2023-05-20T09:09:14.662Z,18.75
2023-05-20T09:11:42.458Z,18.56
2023-05-20T09:14:09.065Z,18.75
2023-05-20T09:16:35.741Z,18.94
2023-05-20T09:19:02.494Z,18.75
2023-05-20T09:21:29.910Z,18.94
2023-05-20T09:23:59.901Z,18.81
2023-05-20T09:26:28.737Z,18.94
2023-05-20T09:28:58.253Z,19.13
2023-05-20T09:31:33.916Z,19.38
2023-05-20T09:34:01.431Z,19.00
2023-05-20T09:36:35.037Z,18.94
2023-05-20T09:39:03.974Z,19.06
2023-05-20T09:41:39.133Z,18.94
2023-05-20T09:44:09.168Z,19.06
2023-05-20T09:46:36.541Z,19.06
2023-05-20T09:49:03.511Z,19.19
2023-05-20T09:51:32.324Z,19.31
2023-05-20T09:54:00.762Z,19.13
2023-05-20T09:56:28.513Z,19.25
2023-05-20T09:58:58.329Z,19.63
2023-05-20T10:01:25.412Z,19.50
2023-05-20T10:03:53.406Z,19.44
2023-05-20T10:06:41.704Z,19.44
2023-05-20T10:09:31.124Z,19.25
2023-05-20T10:12:21.260Z,18.88
2023-05-20T10:15:18.504Z,19.06
2023-05-20T10:18:12.002Z,19.25
2023-05-20T10:20:49.441Z,19.19
2023-05-20T10:23:23.687Z,19.31
2023-05-20T10:25:53.226Z,19.75
2023-05-20T10:28:34.120Z,19.88
2023-05-20T10:31:00.876Z,20.13
2023-05-20T10:33:28.542Z,20.25
2023-05-20T10:36:02.526Z,20.25
2023-05-20T10:38:29.084Z,20.38
2023-05-20T10:40:57.272Z,20.06
2023-05-20T10:43:30.706Z,19.94
2023-05-20T10:45:58.461Z,20.31
2023-05-20T10:48:29.990Z,20.63
2023-05-20T10:50:59.783Z,20.75
2023-05-20T10:53:34.157Z,20.19
2023-05-20T10:56:01.392Z,19.25
2023-05-20T10:58:28.135Z,19.19
2023-05-20T11:00:56.090Z,18.88
2023-05-20T11:03:23.544Z,19.38
2023-05-20T11:05:50.622Z,19.81
2023-05-20T11:08:28.463Z,20.31
2023-05-20T11:10:59.118Z,20.13
2023-05-20T11:13:26.265Z,20.31
2023-05-20T11:15:53.150Z,20.25
2023-05-20T11:18:19.792Z,20.25
2023-05-20T11:20:46.974Z,20.19
2023-05-20T11:23:15.100Z,20.13
2023-05-20T11:25:41.924Z,19.75
2023-05-20T11:28:12.691Z,19.38
2023-05-20T11:30:39.771Z,19.31
2023-05-20T11:33:06.739Z,19.25
2023-05-20T11:35:33.553Z,19.75
2023-05-20T11:38:09.817Z,20.25
2023-05-20T11:40:49.780Z,19.88
2023-05-20T11:43:18.031Z,19.69
2023-05-20T11:45:46.619Z,19.50
2023-05-20T11:48:15.476Z,19.56
2023-05-20T11:50:45.739Z,19.69
2023-05-20T11:53:18.907Z,20.38
2023-05-20T11:55:48.803Z,20.19
2023-05-20T11:58:20.276Z,20.25
2023-05-20T12:00:51.667Z,20.19
2023-05-20T12:03:24.335Z,19.81
2023-05-20T12:05:51.281Z,20.00
2023-05-20T12:08:18.080Z,20.06
2023-05-20T12:10:47.560Z,20.13
2023-05-20T12:13:15.776Z,20.25
2023-05-20T12:15:42.528Z,20.25
2023-05-20T12:18:09.986Z,20.56
2023-05-20T12:20:37.405Z,20.63
2023-05-20T12:23:04.844Z,20.75
2023-05-20T12:25:31.527Z,20.75
2023-05-20T12:27:59.029Z,19.94
2023-05-20T12:30:25.606Z,19.88
2023-05-20T12:32:52.255Z,19.56
2023-05-20T12:35:46.763Z,19.31
2023-05-20T12:38:13.486Z,19.19
2023-05-20T12:40:40.090Z,19.31
2023-05-20T12:43:06.693Z,19.63
2023-05-20T12:45:33.291Z,19.56
2023-05-20T12:48:00.322Z,19.56
2023-05-20T12:50:27.513Z,19.31
2023-05-20T12:52:54.249Z,19.50
2023-05-20T12:55:21.215Z,19.50
2023-05-20T12:57:48.278Z,19.69
2023-05-20T13:00:15.550Z,19.94
2023-05-20T13:02:43.224Z,19.94
2023-05-20T13:05:10.685Z,19.88
2023-05-20T13:07:37.728Z,19.69
2023-05-20T13:10:04.827Z,19.63
2023-05-20T13:12:31.414Z,19.50
2023-05-20T13:14:58.031Z,19.44
2023-05-20T13:17:24.623Z,19.44
2023-05-20T13:19:51.880Z,19.69
2023-05-20T13:22:18.495Z,19.63
2023-05-20T13:24:45.089Z,20.06
2023-05-20T13:27:11.766Z,20.13
2023-05-20T13:29:38.337Z,20.06
2023-05-20T13:32:05.224Z,20.56
2023-05-20T13:34:31.980Z,20.75
2023-05-20T13:36:58.536Z,20.19
2023-05-20T13:39:25.117Z,20.19
2023-05-20T13:41:53.464Z,20.13
2023-05-20T13:44:20.287Z,20.25
2023-05-20T13:46:46.930Z,19.88
2023-05-20T13:49:13.616Z,19.94
2023-05-20T13:51:40.278Z,19.81
2023-05-20T13:54:06.915Z,19.81
2023-05-20T13:56:34.124Z,20.00
2023-05-20T13:59:01.036Z,20.38
2023-05-20T14:01:30.038Z,20.69
2023-05-20T14:03:56.809Z,20.50
2023-05-20T14:06:23.485Z,20.13
2023-05-20T14:08:50.048Z,19.88
2023-05-20T14:11:16.634Z,19.88
2023-05-20T14:13:44.389Z,19.94
2023-05-20T14:16:11.124Z,19.94
2023-05-20T14:18:37.878Z,20.19
2023-05-20T14:21:04.609Z,20.31
2023-05-20T14:23:31.254Z,20.44
2023-05-20T14:25:57.923Z,20.38
2023-05-20T14:28:24.467Z,20.25
2023-05-20T14:30:51.107Z,20.00
2023-05-20T14:33:17.772Z,19.88
2023-05-20T14:35:44.378Z,19.81
2023-05-20T14:38:11.439Z,19.88
2023-05-20T14:40:38.253Z,19.81
2023-05-20T14:43:04.936Z,19.88
2023-05-20T14:45:31.636Z,20.13
2023-05-20T14:47:58.299Z,19.94
2023-05-20T14:50:24.926Z,20.06
2023-05-20T14:52:51.538Z,20.25
2023-05-20T14:55:18.217Z,20.25
2023-05-20T14:57:44.904Z,19.88
2023-05-20T15:00:12.461Z,19.69
2023-05-20T15:02:39.143Z,19.63
2023-05-20T15:05:06.181Z,19.75
2023-05-20T15:07:32.736Z,19.94
2023-05-20T15:09:59.284Z,19.94
2023-05-20T15:12:25.895Z,19.81
2023-05-20T15:14:52.458Z,19.88
2023-05-20T15:17:19.078Z,19.75
2023-05-20T15:19:45.778Z,19.63
2023-05-20T15:22:12.349Z,19.56
2023-05-20T15:24:38.913Z,19.56
2023-05-20T15:27:05.736Z,19.56
2023-05-20T15:29:32.847Z,19.63
2023-05-20T15:31:59.520Z,19.56
2023-05-20T15:34:26.284Z,19.50
2023-05-20T15:36:52.963Z,19.63
2023-05-20T15:39:19.569Z,19.56
2023-05-20T15:41:47.939Z,19.56
2023-05-20T15:44:14.576Z,19.50
2023-05-20T15:46:41.322Z,19.50
2023-05-20T15:49:08.036Z,19.50
2023-05-20T15:51:34.655Z,19.56
2023-05-20T15:54:01.299Z,19.44
2023-05-20T15:56:28.986Z,19.44
2023-05-20T15:58:56.219Z,19.31
2023-05-20T16:01:23.454Z,19.13
2023-05-20T16:03:50.366Z,19.13
2023-05-20T16:06:17.126Z,19.13
2023-05-20T16:08:43.672Z,19.13
2023-05-20T16:11:10.431Z,19.13
2023-05-20T16:13:37.044Z,19.06
2023-05-20T16:16:04.158Z,19.13
2023-05-20T16:18:30.891Z,19.19
2023-05-20T16:20:57.758Z,19.19
2023-05-20T16:23:24.881Z,19.19
2023-05-20T16:25:51.725Z,19.19
2023-05-20T16:28:18.398Z,19.19
2023-05-20T16:30:45.026Z,19.25
2023-05-20T16:33:13.205Z,19.13
2023-05-20T16:35:40.101Z,19.19
2023-05-20T16:38:07.062Z,19.13
2023-05-20T16:40:34.068Z,19.06
2023-05-20T16:43:01.109Z,19.06
2023-05-20T16:45:27.788Z,19.13
2023-05-20T16:47:54.790Z,19.00
2023-05-20T16:50:21.494Z,19.00
2023-05-20T16:52:48.100Z,19.00
2023-05-20T16:55:14.851Z,19.00
2023-05-20T16:57:42.727Z,19.00
2023-05-20T17:00:11.270Z,19.00
2023-05-20T17:02:37.982Z,18.94
2023-05-20T17:05:04.922Z,18.94
2023-05-20T17:07:33.331Z,18.94
2023-05-20T17:10:00.297Z,18.88
2023-05-20T17:12:27.057Z,18.81
2023-05-20T17:14:53.950Z,18.81
2023-05-20T17:17:21.189Z,18.81
2023-05-20T17:19:47.800Z,18.81
2023-05-20T17:22:14.428Z,18.88
2023-05-20T17:24:41.065Z,18.75
2023-05-20T17:27:07.814Z,18.75
2023-05-20T17:29:34.400Z,18.75
2023-05-20T17:32:01.260Z,18.75
2023-05-20T17:34:27.928Z,18.69
2023-05-20T17:36:54.493Z,18.69
2023-05-20T17:39:21.457Z,18.69
2023-05-20T17:41:48.117Z,18.63
2023-05-20T17:44:14.765Z,18.63
2023-05-20T17:46:41.718Z,18.56
2023-05-20T17:49:08.445Z,18.50
2023-05-20T17:51:35.181Z,18.44
2023-05-20T17:54:01.836Z,18.44
2023-05-20T17:56:28.553Z,18.38
2023-05-20T17:58:56.274Z,18.31
2023-05-20T18:01:23.443Z,18.25
2023-05-20T18:03:50.319Z,18.31
2023-05-20T18:06:18.002Z,18.31
2023-05-20T18:08:44.722Z,18.25
2023-05-20T18:11:11.441Z,18.25
2023-05-20T18:13:38.050Z,18.13
2023-05-20T18:16:05.247Z,18.19
2023-05-20T18:18:31.859Z,18.13
2023-05-20T18:20:58.428Z,18.13
2023-05-20T18:23:25.064Z,18.06
2023-05-20T18:25:51.651Z,18.06
2023-05-20T18:28:18.256Z,17.94
2023-05-20T18:30:44.849Z,17.94
2023-05-20T18:33:11.741Z,17.94
2023-05-20T18:35:39.240Z,17.94
2023-05-20T18:38:05.975Z,17.88
2023-05-20T18:40:32.632Z,17.81
2023-05-20T18:42:59.391Z,17.75
2023-05-20T18:45:26.249Z,17.75
2023-05-20T18:47:54.281Z,17.63
2023-05-20T18:50:21.089Z,17.69
2023-05-20T18:52:47.825Z,17.63
2023-05-20T18:55:14.547Z,17.56
2023-05-20T18:57:41.171Z,17.56
2023-05-20T19:00:11.871Z,17.44
2023-05-20T19:02:39.556Z,17.50
2023-05-20T19:05:10.803Z,17.50
2023-05-20T19:07:38.511Z,17.44
2023-05-20T19:10:05.687Z,17.38
2023-05-20T19:12:32.706Z,17.38
2023-05-20T19:15:00.294Z,17.38
2023-05-20T19:17:26.934Z,17.31
2023-05-20T19:19:53.562Z,17.19
2023-05-20T19:22:20.152Z,17.13
2023-05-20T19:24:46.685Z,17.19
2023-05-20T19:27:13.229Z,17.13
2023-05-20T19:29:39.859Z,17.19
2023-05-20T19:32:06.734Z,17.06
2023-05-20T19:34:33.346Z,17.00
2023-05-20T19:37:00.382Z,17.00
2023-05-20T19:39:27.149Z,16.94
2023-05-20T19:41:53.756Z,16.88
2023-05-20T19:44:20.458Z,16.88
2023-05-20T19:46:47.199Z,16.81
2023-05-20T19:49:13.796Z,16.81
2023-05-20T19:51:40.372Z,16.69
2023-05-20T19:54:07.203Z,16.63
2023-05-20T19:56:33.817Z,16.56
2023-05-20T19:59:01.772Z,16.50
2023-05-20T20:01:28.784Z,16.38
2023-05-20T20:03:55.576Z,16.25
2023-05-20T20:06:22.406Z,16.19
2023-05-20T20:08:49.244Z,16.06
2023-05-20T20:11:15.883Z,15.94
2023-05-20T20:13:42.502Z,15.94
2023-05-20T20:16:09.216Z,15.81
2023-05-20T20:18:35.927Z,15.81
2023-05-20T20:21:05.875Z,15.81
2023-05-20T20:23:33.197Z,15.75
2023-05-20T20:25:59.833Z,15.81
2023-05-20T20:28:26.450Z,15.75
2023-05-20T20:30:53.119Z,15.69
2023-05-20T20:33:19.841Z,15.63
2023-05-20T20:35:46.795Z,15.69
2023-05-20T20:38:14.692Z,15.69
2023-05-20T20:40:44.941Z,15.69
2023-05-20T20:43:20.293Z,15.75
2023-05-20T20:45:47.715Z,15.75
2023-05-20T20:48:17.463Z,15.88
2023-05-20T20:50:45.963Z,15.94
2023-05-20T20:53:13.391Z,15.88
2023-05-20T20:55:41.311Z,15.81
2023-05-20T20:58:08.166Z,15.81
2023-05-20T21:00:36.920Z,15.81
2023-05-20T21:03:04.533Z,15.88
2023-05-20T21:05:31.242Z,15.88
2023-05-20T21:08:03.040Z,15.88
2023-05-20T21:10:30.450Z,15.81
2023-05-20T21:12:59.923Z,15.88
2023-05-20T21:15:27.338Z,15.88
2023-05-20T21:17:54.008Z,15.81
2023-05-20T21:20:21.739Z,15.81
2023-05-20T21:22:48.947Z,15.81
2023-05-20T21:25:15.698Z,15.81
2023-05-20T21:27:42.475Z,15.81
2023-05-20T21:30:10.739Z,15.75
2023-05-20T21:32:38.228Z,15.75
2023-05-20T21:35:05.346Z,15.75
2023-05-20T21:37:32.043Z,15.81
2023-05-20T21:39:58.764Z,15.81
2023-05-20T21:42:25.503Z,15.75
2023-05-20T21:44:52.163Z,15.75
2023-05-20T21:47:20.558Z,15.69
2023-05-20T21:49:48.124Z,15.63
2023-05-20T21:52:15.028Z,15.69
2023-05-20T21:54:41.928Z,15.69
2023-05-20T21:57:08.618Z,15.69
2023-05-20T21:59:35.342Z,15.63
2023-05-20T22:02:02.102Z,15.56
2023-05-20T22:04:28.810Z,15.56
2023-05-20T22:06:56.280Z,15.56
2023-05-20T22:09:23.582Z,15.63
2023-05-20T22:11:50.623Z,15.63
2023-05-20T22:14:17.516Z,15.56
2023-05-20T22:16:48.292Z,15.50
2023-05-20T22:19:16.441Z,15.44
2023-05-20T22:21:50.326Z,15.44
2023-05-20T22:24:18.029Z,15.38
2023-05-20T22:26:45.208Z,15.38
2023-05-20T22:29:12.299Z,15.38
2023-05-20T22:31:38.991Z,15.31
2023-05-20T22:34:05.681Z,15.38
2023-05-20T22:36:36.356Z,15.38
2023-05-20T22:39:04.606Z,15.31
2023-05-20T22:41:31.350Z,15.25
2023-05-20T22:43:58.212Z,15.25
2023-05-20T22:46:25.457Z,15.31
2023-05-20T22:48:55.537Z,15.25
2023-05-20T22:51:22.260Z,15.25
2023-05-20T22:53:49.105Z,15.31
2023-05-20T22:56:15.707Z,15.25
2023-05-20T22:58:42.604Z,15.25
2023-05-20T23:01:10.357Z,15.25
2023-05-20T23:03:37.318Z,15.25
2023-05-20T23:06:04.112Z,15.31
2023-05-20T23:08:30.749Z,15.25
2023-05-20T23:10:57.353Z,15.25
2023-05-20T23:13:24.103Z,15.25
2023-05-20T23:15:50.653Z,15.19
2023-05-20T23:18:18.348Z,15.19
2023-05-20T23:20:44.965Z,15.19
2023-05-20T23:23:11.875Z,15.25
2023-05-20T23:25:39.231Z,15.25
2023-05-20T23:28:06.457Z,15.13
2023-05-20T23:30:34.837Z,15.13
2023-05-20T23:33:01.984Z,15.19
2023-05-20T23:35:28.643Z,15.13
2023-05-20T23:37:55.279Z,15.13
2023-05-20T23:40:21.892Z,15.19
2023-05-20T23:42:48.520Z,15.13
2023-05-20T23:45:15.215Z,15.06
2023-05-20T23:47:41.989Z,15.06
2023-05-20T23:50:09.408Z,15.06
2023-05-20T23:52:36.084Z,15.06
2023-05-20T23:55:02.742Z,15.06
2023-05-20T23:57:29.379Z,15.06
2023-05-20T23:59:56.003Z,15.06
